Time;durP1;ratioP1;P1;durP2;ratioP2;P2;SDS_P1;SDS_P2;PMS_P1;PMS_P2;Temp;Humidity;BMP_temperature;BMP_pressure;BME280_temperature;BME280_humidity;BME280_pressure;Samples;Min_cycle;Max_cycle;Signal;HPM_P1;HPM_P2
2021/12/06 00:02:16;;;;;;;2.50;1.23;;;;;;;;;;5004779;28;20096;-72
2021/12/06 00:04:42;;;;;;;1.50;1.10;;;;;;;;;;4995365;28;20052;-71
2021/12/06 00:07:12;;;;;;;1.85;1.13;;;;;;;;;;5010349;28;20026;-71
2021/12/06 00:09:38;;;;;;;1.95;0.98;;;;;;;;;;4999453;28;20026;-71
2021/12/06 00:12:04;;;;;;;1.15;1.00;;;;;;;;;;5021827;28;20076;-71
2021/12/06 00:14:33;;;;;;;1.60;0.65;;;;;;;;;;5022811;28;20102;-73
2021/12/06 00:17:02;;;;;;;2.50;1.00;;;;;;;;;;4991779;28;20015;-72
2021/12/06 00:19:29;;;;;;;3.50;1.25;;;;;;;;;;5006829;28;20030;-71
2021/12/06 00:21:55;;;;;;;1.65;1.05;;;;;;;;;;5005590;28;20026;-71
2021/12/06 00:24:21;;;;;;;1.67;1.02;;;;;;;;;;4993825;28;20030;-70
2021/12/06 00:26:47;;;;;;;1.73;0.85;;;;;;;;;;4988702;28;20085;-71
2021/12/06 00:29:12;;;;;;;1.40;1.02;;;;;;;;;;5009676;28;20080;-72
2021/12/06 00:31:39;;;;;;;0.85;0.60;;;;;;;;;;5009813;28;20022;-71
2021/12/06 00:34:09;;;;;;;1.65;0.90;;;;;;;;;;5006229;28;20038;-71
2021/12/06 00:36:40;;;;;;;2.90;1.00;;;;;;;;;;5006417;28;20122;-71
2021/12/06 00:39:11;;;;;;;1.42;0.98;;;;;;;;;;4991133;28;20054;-71
2021/12/06 00:41:37;;;;;;;2.45;1.02;;;;;;;;;;5007721;28;20057;-72
2021/12/06 00:44:03;;;;;;;1.42;0.90;;;;;;;;;;5015513;28;20041;-71
2021/12/06 00:46:29;;;;;;;1.38;0.90;;;;;;;;;;5009835;28;20036;-71
2021/12/06 00:48:55;;;;;;;2.03;1.00;;;;;;;;;;5029830;28;20026;-71
2021/12/06 00:51:20;;;;;;;1.00;0.80;;;;;;;;;;5004639;28;20057;-72
2021/12/06 00:53:46;;;;;;;1.27;0.70;;;;;;;;;;5018135;28;20082;-71
2021/12/06 00:56:12;;;;;;;1.55;1.02;;;;;;;;;;5021353;28;20084;-71
2021/12/06 00:58:38;;;;;;;3.25;1.30;;;;;;;;;;5031156;28;20049;-72
2021/12/06 01:01:05;;;;;;;1.75;1.13;;;;;;;;;;5024922;28;20041;-70
2021/12/06 01:03:34;;;;;;;2.17;1.00;;;;;;;;;;4998092;28;20018;-71
2021/12/06 01:06:00;;;;;;;1.33;0.63;;;;;;;;;;5020190;28;20022;-71
2021/12/06 01:08:26;;;;;;;2.05;1.20;;;;;;;;;;5021919;28;20037;-72
2021/12/06 01:10:52;;;;;;;1.52;0.90;;;;;;;;;;5022025;28;20029;-71
2021/12/06 01:13:19;;;;;;;1.42;0.82;;;;;;;;;;5021825;28;20100;-70
2021/12/06 01:15:44;;;;;;;2.55;1.10;;;;;;;;;;5021835;28;20034;-71
2021/12/06 01:18:13;;;;;;;1.95;1.00;;;;;;;;;;5015420;28;20080;-71
2021/12/06 01:20:49;;;;;;;1.52;1.10;;;;;;;;;;5021268;28;20102;-72
2021/12/06 01:23:17;;;;;;;1.33;0.90;;;;;;;;;;5013382;28;20029;-72
2021/12/06 01:41:14;;;;;;;1.67;1.20;;;;;;;;;;5023439;28;20040;-72
2021/12/06 01:44:10;;;;;;;3.60;1.55;;;;;;;;;;5020925;28;20068;-70
2021/12/06 01:47:02;;;;;;;2.05;1.20;;;;;;;;;;5021147;28;20065;-71
2021/12/06 01:49:32;;;;;;;1.85;1.10;;;;;;;;;;4998784;28;20093;-71
2021/12/06 01:52:00;;;;;;;2.03;1.02;;;;;;;;;;5021469;28;20056;-71
2021/12/06 01:54:25;;;;;;;2.08;1.20;;;;;;;;;;5021948;28;20053;-70
2021/12/06 01:56:52;;;;;;;1.27;0.85;;;;;;;;;;5021177;28;20045;-71
2021/12/06 01:59:20;;;;;;;4.53;1.33;;;;;;;;;;5021654;28;20026;-71
2021/12/06 02:01:47;;;;;;;1.33;0.98;;;;;;;;;;5020722;28;20044;-71
2021/12/06 02:04:14;;;;;;;1.65;0.90;;;;;;;;;;5021119;28;20025;-71
2021/12/06 02:06:39;;;;;;;1.50;1.05;;;;;;;;;;5021198;28;20044;-73
2021/12/06 02:09:08;;;;;;;1.33;0.80;;;;;;;;;;5021010;28;20081;-71
2021/12/06 02:11:36;;;;;;;1.27;1.00;;;;;;;;;;5004174;28;20045;-71
2021/12/06 02:14:16;;;;;;;1.25;0.80;;;;;;;;;;5021187;28;20024;-71
2021/12/06 02:19:35;;;;;;;2.65;1.10;;;;;;;;;;5020938;28;20026;-71
2021/12/06 02:22:01;;;;;;;0.73;0.55;;;;;;;;;;5021361;28;20018;-72
2021/12/06 02:24:30;;;;;;;1.60;0.70;;;;;;;;;;5020840;28;20084;-72
2021/12/06 02:26:56;;;;;;;2.88;1.42;;;;;;;;;;5004077;28;20029;-71
2021/12/06 02:29:21;;;;;;;4.95;1.20;;;;;;;;;;5020522;28;20064;-72
2021/12/06 02:31:47;;;;;;;1.15;0.90;;;;;;;;;;5020665;28;20064;-71
2021/12/06 02:34:13;;;;;;;3.33;0.80;;;;;;;;;;5020571;28;20039;-72
2021/12/06 02:36:39;;;;;;;2.65;1.42;;;;;;;;;;5021046;28;20049;-70
2021/12/06 02:39:09;;;;;;;2.75;0.88;;;;;;;;;;5002613;28;20219;-72
2021/12/06 02:41:34;;;;;;;0.75;0.55;;;;;;;;;;5008097;28;20034;-71
2021/12/06 02:44:00;;;;;;;2.08;1.02;;;;;;;;;;5017940;28;20029;-71
2021/12/06 02:46:27;;;;;;;2.55;1.10;;;;;;;;;;5019152;28;20421;-71
2021/12/06 02:48:52;;;;;;;1.85;1.30;;;;;;;;;;5020226;28;20032;-71
2021/12/06 02:51:19;;;;;;;8.02;1.20;;;;;;;;;;5019586;28;20029;-71
2021/12/06 02:53:45;;;;;;;1.67;0.90;;;;;;;;;;5002205;28;20095;-72
2021/12/06 02:56:29;;;;;;;2.40;1.00;;;;;;;;;;5020472;28;20049;-71
2021/12/06 02:58:56;;;;;;;0.93;0.80;;;;;;;;;;5018553;28;20026;-71
2021/12/06 03:01:30;;;;;;;3.00;1.13;;;;;;;;;;5020761;28;20048;-71
2021/12/06 03:03:56;;;;;;;;;;;;;;;;;;5021337;28;20402;-71
2021/12/06 03:06:22;;;;;;;0.50;0.50;;;;;;;;;;5020631;28;19917;-72
2021/12/06 03:08:54;;;;;;;1.63;1.10;;;;;;;;;;5019853;28;20030;-71
2021/12/06 03:11:51;;;;;;;1.27;1.00;;;;;;;;;;5019209;28;20062;-71
2021/12/06 03:14:21;;;;;;;0.98;0.73;;;;;;;;;;5010784;28;20045;-71
2021/12/06 03:16:48;;;;;;;3.30;1.05;;;;;;;;;;5003150;28;20053;-71
2021/12/06 03:19:14;;;;;;;1.10;1.00;;;;;;;;;;5002361;28;20144;-70
2021/12/06 03:21:40;;;;;;;2.95;1.40;;;;;;;;;;5019490;28;20359;-71
2021/12/06 03:24:06;;;;;;;1.63;0.90;;;;;;;;;;5020642;28;20474;-70
2021/12/06 03:26:33;;;;;;;1.27;0.77;;;;;;;;;;5020710;28;20053;-70
2021/12/06 03:29:00;;;;;;;2.45;0.90;;;;;;;;;;5020098;28;20026;-71
2021/12/06 03:31:26;;;;;;;2.47;0.88;;;;;;;;;;5002693;28;20025;-70
2021/12/06 03:33:56;;;;;;;1.15;0.90;;;;;;;;;;5019234;28;20018;-71
2021/12/06 03:36:24;;;;;;;2.15;0.75;;;;;;;;;;5020395;28;20069;-70
2021/12/06 03:38:51;;;;;;;2.05;1.05;;;;;;;;;;5001498;28;20038;-71
2021/12/06 03:41:17;;;;;;;1.77;0.90;;;;;;;;;;5018348;28;20030;-70
2021/12/06 03:43:44;;;;;;;1.83;0.85;;;;;;;;;;5011129;28;20041;-70
2021/12/06 03:46:12;;;;;;;1.67;1.00;;;;;;;;;;5019807;28;20038;-71
2021/12/06 03:48:37;;;;;;;2.40;1.30;;;;;;;;;;5019341;28;20042;-70
2021/12/06 03:51:05;;;;;;;1.83;1.20;;;;;;;;;;5018800;28;20528;-70
2021/12/06 03:53:31;;;;;;;1.88;1.08;;;;;;;;;;5001891;28;20030;-71
2021/12/06 03:55:58;;;;;;;1.40;1.02;;;;;;;;;;5002648;28;20057;-70
2021/12/06 03:58:24;;;;;;;1.83;1.20;;;;;;;;;;5019456;28;20030;-71
2021/12/06 04:00:50;;;;;;;1.55;1.00;;;;;;;;;;5020498;28;20053;-70
2021/12/06 04:03:17;;;;;;;1.67;1.15;;;;;;;;;;5017148;28;20079;-70
2021/12/06 04:05:43;;;;;;;2.38;1.23;;;;;;;;;;5019098;28;20022;-71
2021/12/06 04:08:09;;;;;;;2.67;1.10;;;;;;;;;;5019154;28;20049;-70
2021/12/06 04:10:34;;;;;;;2.33;1.17;;;;;;;;;;5019688;28;20028;-70
2021/12/06 04:13:00;;;;;;;3.05;1.13;;;;;;;;;;5019534;28;20024;-70
2021/12/06 04:15:30;;;;;;;2.45;1.00;;;;;;;;;;5020340;28;20354;-70
2021/12/06 04:17:57;;;;;;;1.65;1.00;;;;;;;;;;5000940;28;20179;-71
2021/12/06 04:20:23;;;;;;;2.13;1.20;;;;;;;;;;5020092;28;20034;-71
2021/12/06 04:22:48;;;;;;;2.25;1.27;;;;;;;;;;5002387;28;20022;-71
2021/12/06 04:25:16;;;;;;;2.47;1.17;;;;;;;;;;5006448;28;20041;-71
2021/12/06 04:27:42;;;;;;;2.13;1.15;;;;;;;;;;5022411;28;20032;-70
2021/12/06 04:30:10;;;;;;;2.33;1.10;;;;;;;;;;5023800;28;20021;-70
2021/12/06 04:32:37;;;;;;;3.60;1.58;;;;;;;;;;5023369;28;20037;-71
2021/12/06 04:35:03;;;;;;;1.90;1.05;;;;;;;;;;5024114;28;20018;-70
2021/12/06 04:37:28;;;;;;;1.92;1.30;;;;;;;;;;5004921;28;20052;-71
2021/12/06 04:39:54;;;;;;;2.10;1.15;;;;;;;;;;5023327;28;20057;-70
2021/12/06 04:42:20;;;;;;;2.42;1.25;;;;;;;;;;5022715;28;20034;-71
2021/12/06 04:44:46;;;;;;;2.90;1.48;;;;;;;;;;5007336;28;20030;-71
2021/12/06 04:47:12;;;;;;;1.77;1.02;;;;;;;;;;5022647;28;20066;-71
2021/12/06 04:49:38;;;;;;;1.77;1.10;;;;;;;;;;5023759;28;20033;-70
2021/12/06 04:52:07;;;;;;;1.05;0.95;;;;;;;;;;5022415;28;20140;-70
2021/12/06 04:54:36;;;;;;;2.67;1.80;;;;;;;;;;5004603;28;20018;-71
2021/12/06 04:57:24;;;;;;;2.80;1.10;;;;;;;;;;5004663;28;20246;-70
2021/12/06 04:59:57;;;;;;;4.65;1.48;;;;;;;;;;5005180;28;20109;-70
2021/12/06 05:02:34;;;;;;;3.35;1.42;;;;;;;;;;5022603;28;20040;-70
2021/12/06 05:05:08;;;;;;;1.73;1.13;;;;;;;;;;5021606;28;20038;-70
2021/12/06 05:07:40;;;;;;;6.80;1.55;;;;;;;;;;5021632;28;20049;-70
2021/12/06 05:10:08;;;;;;;3.47;1.65;;;;;;;;;;5021353;28;20018;-72
2021/12/06 05:12:35;;;;;;;1.45;1.02;;;;;;;;;;5022119;28;20032;-71
2021/12/06 05:15:05;;;;;;;2.08;1.40;;;;;;;;;;5022131;28;20037;-70
2021/12/06 05:17:30;;;;;;;1.83;1.25;;;;;;;;;;5021007;28;20018;-70
2021/12/06 05:19:56;;;;;;;1.65;1.00;;;;;;;;;;5020947;28;20022;-71
2021/12/06 05:22:22;;;;;;;2.13;1.48;;;;;;;;;;5014837;28;20065;-71
2021/12/06 05:24:47;;;;;;;2.53;1.40;;;;;;;;;;5017691;28;20026;-70
2021/12/06 05:27:13;;;;;;;1.63;1.25;;;;;;;;;;5021216;28;20038;-70
2021/12/06 05:29:44;;;;;;;2.13;1.08;;;;;;;;;;4999023;28;20030;-70
2021/12/06 05:32:09;;;;;;;4.05;1.13;;;;;;;;;;5021344;28;20045;-70
2021/12/06 05:34:41;;;;;;;1.60;1.20;;;;;;;;;;5006599;28;20087;-70
2021/12/06 05:37:09;;;;;;;2.22;1.35;;;;;;;;;;5024816;28;20030;-71
2021/12/06 05:39:34;;;;;;;2.08;1.00;;;;;;;;;;5024503;28;20034;-70
2021/12/06 05:42:06;;;;;;;2.08;1.10;;;;;;;;;;5006553;28;20418;-69
2021/12/06 05:44:32;;;;;;;1.63;1.15;;;;;;;;;;5024682;28;20018;-70
2021/12/06 05:46:58;;;;;;;1.92;1.30;;;;;;;;;;5024407;28;20065;-70
2021/12/06 05:49:24;;;;;;;1.33;1.00;;;;;;;;;;5024105;28;20025;-70
2021/12/06 05:51:50;;;;;;;2.30;1.20;;;;;;;;;;5024158;28;20117;-70
2021/12/06 05:54:16;;;;;;;2.53;1.70;;;;;;;;;;5040401;28;20056;-72
2021/12/06 05:56:42;;;;;;;2.40;1.50;;;;;;;;;;5024427;28;20026;-70
2021/12/06 05:59:08;;;;;;;2.10;1.35;;;;;;;;;;5022581;28;20114;-71
2021/12/06 06:01:33;;;;;;;2.55;1.35;;;;;;;;;;5006892;28;20018;-71
2021/12/06 06:04:01;;;;;;;4.50;2.33;;;;;;;;;;5003566;28;20019;-71
2021/12/06 06:06:32;;;;;;;3.70;2.15;;;;;;;;;;5022659;28;20029;-70
2021/12/06 06:08:58;;;;;;;2.13;1.63;;;;;;;;;;5020029;28;20087;-72
2021/12/06 06:11:24;;;;;;;2.28;1.30;;;;;;;;;;5003552;28;20028;-70
2021/12/06 06:13:49;;;;;;;4.18;1.70;;;;;;;;;;5002182;28;20030;-71
2021/12/06 06:16:19;;;;;;;2.33;1.45;;;;;;;;;;5020971;28;20358;-70
2021/12/06 06:18:44;;;;;;;1.83;1.30;;;;;;;;;;5019492;28;20029;-71
2021/12/06 06:21:10;;;;;;;1.77;1.20;;;;;;;;;;5021282;28;20359;-71
2021/12/06 06:23:35;;;;;;;3.35;1.58;;;;;;;;;;5020519;28;20072;-71
2021/12/06 06:26:01;;;;;;;1.48;1.20;;;;;;;;;;5022797;28;20064;-71
2021/12/06 06:28:27;;;;;;;1.92;1.30;;;;;;;;;;5020680;28;20025;-71
2021/12/06 06:30:52;;;;;;;5.13;1.48;;;;;;;;;;5003509;28;20026;-71
2021/12/06 06:33:18;;;;;;;2.42;1.10;;;;;;;;;;5017203;28;20022;-70
2021/12/06 06:35:43;;;;;;;2.47;1.70;;;;;;;;;;5022785;28;20533;-71
2021/12/06 06:38:09;;;;;;;1.65;1.17;;;;;;;;;;5022507;28;20045;-70
2021/12/06 06:40:34;;;;;;;1.60;1.40;;;;;;;;;;5023364;28;20433;-72
2021/12/06 06:43:01;;;;;;;1.02;0.82;;;;;;;;;;5022423;28;20022;-70
2021/12/06 06:45:26;;;;;;;2.58;1.30;;;;;;;;;;5022064;28;20022;-72
2021/12/06 06:47:52;;;;;;;1.42;0.90;;;;;;;;;;5021245;28;20046;-70
2021/12/06 06:50:18;;;;;;;2.00;1.20;;;;;;;;;;5004054;28;20029;-71
2021/12/06 06:52:45;;;;;;;2.03;1.15;;;;;;;;;;5021610;28;20034;-71
2021/12/06 06:55:11;;;;;;;2.80;1.05;;;;;;;;;;5021904;28;20017;-70
2021/12/06 06:57:38;;;;;;;1.45;1.25;;;;;;;;;;5021663;28;20021;-70
2021/12/06 07:00:13;;;;;;;2.15;1.42;;;;;;;;;;5003928;28;20082;-72
2021/12/06 07:02:38;;;;;;;2.05;1.17;;;;;;;;;;5021485;28;20014;-72
2021/12/06 07:05:05;;;;;;;4.68;1.70;;;;;;;;;;5021317;28;20056;-73
2021/12/06 07:07:30;;;;;;;2.72;1.05;;;;;;;;;;5021431;28;20064;-72
2021/12/06 07:09:56;;;;;;;1.30;1.10;;;;;;;;;;5023604;28;20026;-72
2021/12/06 07:12:21;;;;;;;1.85;1.20;;;;;;;;;;5022935;28;20486;-72
2021/12/06 07:14:47;;;;;;;3.70;1.15;;;;;;;;;;5022240;28;20369;-71
2021/12/06 07:17:15;;;;;;;2.47;1.70;;;;;;;;;;5023023;28;20041;-73
2021/12/06 07:19:40;;;;;;;1.80;1.15;;;;;;;;;;5003499;28;20089;-74
2021/12/06 07:22:06;;;;;;;1.45;1.00;;;;;;;;;;5022790;28;20033;-71
2021/12/06 07:24:32;;;;;;;1.38;1.00;;;;;;;;;;5022249;28;20018;-73
2021/12/06 07:26:57;;;;;;;1.10;0.95;;;;;;;;;;5022151;28;20026;-71
2021/12/06 07:29:23;;;;;;;1.52;1.10;;;;;;;;;;5022099;28;20110;-71
2021/12/06 07:31:50;;;;;;;0.93;0.75;;;;;;;;;;5023026;28;20030;-71
2021/12/06 07:34:15;;;;;;;1.63;1.10;;;;;;;;;;5021769;28;20029;-73
2021/12/06 07:36:41;;;;;;;2.38;1.10;;;;;;;;;;5021179;28;20037;-73
2021/12/06 07:39:07;;;;;;;2.35;1.10;;;;;;;;;;5003954;28;20069;-72
2021/12/06 07:41:33;;;;;;;1.25;0.98;;;;;;;;;;5021308;28;20037;-72
2021/12/06 07:43:59;;;;;;;2.92;1.75;;;;;;;;;;5016129;28;20112;-71
2021/12/06 07:46:25;;;;;;;2.10;1.15;;;;;;;;;;5041303;28;20021;-71
2021/12/06 07:48:52;;;;;;;1.80;1.02;;;;;;;;;;5041437;28;20032;-72
2021/12/06 07:51:26;;;;;;;2.53;1.48;;;;;;;;;;5011142;28;20022;-72
2021/12/06 07:53:52;;;;;;;2.28;1.38;;;;;;;;;;5023316;28;20022;-71
2021/12/06 07:56:19;;;;;;;1.33;0.95;;;;;;;;;;4998050;28;20356;-72
2021/12/06 07:58:45;;;;;;;5.70;1.15;;;;;;;;;;5019710;28;20040;-72
2021/12/06 08:01:11;;;;;;;2.70;0.98;;;;;;;;;;5008928;28;20032;-71
2021/12/06 08:03:41;;;;;;;1.13;1.02;;;;;;;;;;5026336;28;20084;-72
2021/12/06 08:06:08;;;;;;;2.25;1.27;;;;;;;;;;5026637;28;20080;-72
2021/12/06 08:08:35;;;;;;;2.22;1.55;;;;;;;;;;5025478;28;20060;-71
2021/12/06 08:11:14;;;;;;;3.03;1.98;;;;;;;;;;5024478;28;20026;-70
2021/12/06 08:13:43;;;;;;;2.40;1.48;;;;;;;;;;5026131;28;20037;-71
2021/12/06 08:16:13;;;;;;;2.83;1.50;;;;;;;;;;5026501;28;20033;-70
2021/12/06 08:18:39;;;;;;;2.40;1.60;;;;;;;;;;5026356;28;20428;-71
2021/12/06 08:21:05;;;;;;;2.88;1.80;;;;;;;;;;5026625;28;20048;-71
2021/12/06 08:23:31;;;;;;;3.30;1.83;;;;;;;;;;5026035;28;20438;-72
2021/12/06 08:25:58;;;;;;;3.58;2.28;;;;;;;;;;5025950;28;20021;-73
2021/12/06 08:28:24;;;;;;;1.83;1.40;;;;;;;;;;5026167;28;20057;-73
2021/12/06 08:30:51;;;;;;;4.03;1.83;;;;;;;;;;5008318;28;20057;-70
2021/12/06 08:33:19;;;;;;;5.32;2.35;;;;;;;;;;5008387;28;20045;-70
2021/12/06 08:35:48;;;;;;;3.65;1.50;;;;;;;;;;5026197;28;20112;-71
2021/12/06 08:38:15;;;;;;;3.25;1.70;;;;;;;;;;5026019;28;20026;-72
2021/12/06 08:40:43;;;;;;;1.70;1.10;;;;;;;;;;5025735;28;20021;-72
2021/12/06 08:43:16;;;;;;;2.58;1.38;;;;;;;;;;5008350;28;20041;-72
2021/12/06 08:45:47;;;;;;;1.85;1.30;;;;;;;;;;5025867;28;20044;-71
2021/12/06 08:48:12;;;;;;;2.60;1.63;;;;;;;;;;5024797;28;20052;-72
2021/12/06 08:50:38;;;;;;;2.65;1.67;;;;;;;;;;5022562;28;20108;-72
2021/12/06 08:53:03;;;;;;;2.22;1.27;;;;;;;;;;5025744;28;20095;-71
2021/12/06 08:55:29;;;;;;;2.08;1.23;;;;;;;;;;5028426;28;20053;-72
2021/12/06 08:57:55;;;;;;;5.72;1.90;;;;;;;;;;5019804;28;20068;-72
2021/12/06 09:00:25;;;;;;;2.50;1.83;;;;;;;;;;5007886;28;20026;-71
2021/12/06 09:02:51;;;;;;;4.47;1.80;;;;;;;;;;5025413;28;20100;-72
2021/12/06 09:05:16;;;;;;;4.63;1.90;;;;;;;;;;5007941;28;20485;-71
2021/12/06 09:07:42;;;;;;;4.18;2.03;;;;;;;;;;5007854;28;20104;-70
2021/12/06 09:10:10;;;;;;;2.60;1.40;;;;;;;;;;5024647;28;20025;-71
2021/12/06 09:12:36;;;;;;;4.13;1.58;;;;;;;;;;5025051;28;20054;-72
2021/12/06 09:15:06;;;;;;;3.42;2.10;;;;;;;;;;5025606;28;20041;-72
2021/12/06 09:17:32;;;;;;;3.70;1.70;;;;;;;;;;5025111;28;20026;-69
2021/12/06 09:19:58;;;;;;;2.97;1.58;;;;;;;;;;5025326;28;20430;-72
2021/12/06 09:22:25;;;;;;;3.45;1.50;;;;;;;;;;5025583;28;20022;-70
2021/12/06 09:24:51;;;;;;;2.80;1.40;;;;;;;;;;5024688;28;20034;-73
2021/12/06 09:27:18;;;;;;;4.00;1.60;;;;;;;;;;5025240;28;20026;-71
2021/12/06 09:29:44;;;;;;;6.25;1.55;;;;;;;;;;5006858;28;20046;-72
2021/12/06 09:32:12;;;;;;;3.30;1.80;;;;;;;;;;5022321;28;20041;-72
2021/12/06 09:34:40;;;;;;;4.88;1.80;;;;;;;;;;5025066;28;20041;-72
2021/12/06 09:37:07;;;;;;;3.22;1.70;;;;;;;;;;5007493;28;20034;-72
2021/12/06 09:39:33;;;;;;;3.20;1.50;;;;;;;;;;5024272;28;20095;-71
2021/12/06 09:41:59;;;;;;;2.35;1.40;;;;;;;;;;5017327;28;20109;-73
2021/12/06 09:44:25;;;;;;;7.90;1.70;;;;;;;;;;5024755;28;20030;-72
2021/12/06 09:46:51;;;;;;;2.88;1.80;;;;;;;;;;4999556;28;20038;-71
2021/12/06 09:49:20;;;;;;;2.20;1.58;;;;;;;;;;5024767;28;20028;-72
2021/12/06 09:51:53;;;;;;;3.47;1.65;;;;;;;;;;5025104;28;20022;-73
2021/12/06 09:54:22;;;;;;;3.08;1.90;;;;;;;;;;5028104;28;20578;-72
2021/12/06 09:56:50;;;;;;;5.32;2.28;;;;;;;;;;5019511;28;20018;-74
2021/12/06 09:59:21;;;;;;;6.47;2.30;;;;;;;;;;5024385;28;20052;-72
2021/12/06 10:01:53;;;;;;;8.52;3.00;;;;;;;;;;5024824;28;20026;-73
2021/12/06 10:04:21;;;;;;;4.88;2.40;;;;;;;;;;5007489;28;20406;-71
2021/12/06 10:06:48;;;;;;;6.45;2.65;;;;;;;;;;5024226;28;20030;-72
2021/12/06 10:09:17;;;;;;;4.80;1.98;;;;;;;;;;5006734;28;20761;-71
2021/12/06 10:11:43;;;;;;;3.72;2.10;;;;;;;;;;5024903;28;20025;-72
2021/12/06 10:14:09;;;;;;;2.55;1.58;;;;;;;;;;5024365;28;20083;-71
2021/12/06 10:16:36;;;;;;;3.35;2.13;;;;;;;;;;5017878;28;20037;-71
2021/12/06 10:19:03;;;;;;;2.55;1.55;;;;;;;;;;5023916;28;20024;-72
2021/12/06 10:21:28;;;;;;;2.90;1.52;;;;;;;;;;5006194;28;20699;-72
2021/12/06 10:23:56;;;;;;;2.92;1.60;;;;;;;;;;5024000;28;20033;-72
2021/12/06 10:26:24;;;;;;;4.97;2.15;;;;;;;;;;5006431;28;20060;-73
2021/12/06 10:28:55;;;;;;;6.28;1.83;;;;;;;;;;5005843;28;20025;-72
2021/12/06 10:31:21;;;;;;;3.55;1.70;;;;;;;;;;5006365;28;20045;-72
2021/12/06 10:33:48;;;;;;;3.40;1.60;;;;;;;;;;5023929;28;20084;-72
2021/12/06 10:36:16;;;;;;;3.35;1.83;;;;;;;;;;5023780;28;20052;-71
2021/12/06 10:38:47;;;;;;;3.40;1.80;;;;;;;;;;5023866;28;20053;-72
2021/12/06 10:41:17;;;;;;;2.60;1.73;;;;;;;;;;5023557;28;20018;-72
2021/12/06 10:43:57;;;;;;;2.80;1.90;;;;;;;;;;5023657;28;20036;-72
2021/12/06 10:46:23;;;;;;;3.03;1.80;;;;;;;;;;5023230;28;20030;-72
2021/12/06 10:48:53;;;;;;;3.00;1.35;;;;;;;;;;5023483;28;20032;-72
2021/12/06 10:51:20;;;;;;;2.53;1.60;;;;;;;;;;5024014;28;20100;-71
2021/12/06 10:53:57;;;;;;;3.30;1.90;;;;;;;;;;5005878;28;20113;-71
2021/12/06 10:56:32;;;;;;;1.83;1.25;;;;;;;;;;5039192;28;20489;-71
2021/12/06 10:58:57;;;;;;;3.70;1.58;;;;;;;;;;5034133;28;20034;-71
2021/12/06 11:01:31;;;;;;;5.00;1.70;;;;;;;;;;5023487;28;20034;-71
2021/12/06 11:03:57;;;;;;;3.15;1.75;;;;;;;;;;5022889;28;20013;-71
2021/12/06 11:06:31;;;;;;;2.55;1.63;;;;;;;;;;5005969;28;20037;-71
2021/12/06 11:08:59;;;;;;;4.18;1.60;;;;;;;;;;5023386;28;20049;-73
2021/12/06 11:11:31;;;;;;;2.40;1.50;;;;;;;;;;5005531;28;20046;-72
2021/12/06 11:14:00;;;;;;;2.30;1.40;;;;;;;;;;5005581;28;20014;-72
2021/12/06 11:16:33;;;;;;;3.55;1.45;;;;;;;;;;5022234;28;20034;-72
2021/12/06 11:19:03;;;;;;;2.78;1.02;;;;;;;;;;5025470;28;20033;-72
2021/12/06 11:21:46;;;;;;;1.92;1.20;;;;;;;;;;5005979;28;20018;-71
2021/12/06 11:24:13;;;;;;;3.05;1.75;;;;;;;;;;5023677;28;20057;-70
2021/12/06 11:26:47;;;;;;;2.10;1.30;;;;;;;;;;5023629;28;20014;-70
2021/12/06 11:29:35;;;;;;;2.53;1.63;;;;;;;;;;5023497;28;20072;-71
2021/12/06 11:32:11;;;;;;;4.03;1.48;;;;;;;;;;4995323;28;20106;-71
2021/12/06 11:34:40;;;;;;;3.08;1.95;;;;;;;;;;5007831;28;20374;-71
2021/12/06 11:37:37;;;;;;;2.97;1.85;;;;;;;;;;5027035;28;20033;-72
2021/12/06 11:40:08;;;;;;;3.17;2.00;;;;;;;;;;5004547;28;20396;-73
2021/12/06 11:42:53;;;;;;;3.08;1.88;;;;;;;;;;5007976;28;20041;-71
2021/12/06 11:45:49;;;;;;;3.67;1.88;;;;;;;;;;5026947;28;20014;-71
2021/12/06 11:48:26;;;;;;;4.57;1.90;;;;;;;;;;5026567;28;20113;-71
2021/12/06 11:50:51;;;;;;;2.30;1.58;;;;;;;;;;5027193;28;20522;-71
2021/12/06 11:53:21;;;;;;;2.60;1.42;;;;;;;;;;5026707;28;20049;-70
2021/12/06 11:55:54;;;;;;;4.15;1.98;;;;;;;;;;5039436;28;20025;-72
2021/12/06 11:58:41;;;;;;;3.28;1.80;;;;;;;;;;5028821;28;20030;-71
2021/12/06 12:01:17;;;;;;;4.18;1.67;;;;;;;;;;5046450;28;20064;-71
2021/12/06 12:03:46;;;;;;;2.42;1.60;;;;;;;;;;5046363;28;20044;-72
2021/12/06 12:06:26;;;;;;;2.90;1.70;;;;;;;;;;5046206;28;20049;-71
2021/12/06 12:09:21;;;;;;;1.70;1.30;;;;;;;;;;5032132;28;20033;-72
2021/12/06 12:12:12;;;;;;;3.78;1.40;;;;;;;;;;5027453;28;20026;-71
2021/12/06 12:14:41;;;;;;;2.55;1.50;;;;;;;;;;5026118;28;20045;-71
2021/12/06 12:17:24;;;;;;;2.22;1.30;;;;;;;;;;5026502;28;20110;-70
2021/12/06 12:19:52;;;;;;;2.53;1.15;;;;;;;;;;5026372;28;20037;-71
2021/12/06 12:22:20;;;;;;;4.47;1.00;;;;;;;;;;5006896;28;20419;-71
2021/12/06 12:24:51;;;;;;;2.00;1.13;;;;;;;;;;5006696;28;20050;-71
2021/12/06 12:27:34;;;;;;;2.25;1.10;;;;;;;;;;4989099;28;20503;-72
2021/12/06 12:30:00;;;;;;;3.03;1.50;;;;;;;;;;5015611;28;20038;-70
2021/12/06 12:32:28;;;;;;;2.40;1.27;;;;;;;;;;5026251;28;20032;-71
2021/12/06 12:34:59;;;;;;;3.58;1.30;;;;;;;;;;5026043;28;20025;-71
2021/12/06 12:37:25;;;;;;;1.95;1.30;;;;;;;;;;5025685;28;20038;-72
2021/12/06 12:40:00;;;;;;;3.00;1.15;;;;;;;;;;5025706;28;20026;-71
2021/12/06 12:42:26;;;;;;;2.30;1.10;;;;;;;;;;5025662;28;20036;-72
2021/12/06 12:44:54;;;;;;;1.13;0.90;;;;;;;;;;5025325;28;20112;-71
2021/12/06 12:47:23;;;;;;;3.38;1.13;;;;;;;;;;5025814;28;20048;-71
2021/12/06 12:50:09;;;;;;;2.13;1.30;;;;;;;;;;5025630;28;20025;-73
2021/12/06 12:52:42;;;;;;;3.03;1.38;;;;;;;;;;5025527;28;20057;-71
2021/12/06 12:55:45;;;;;;;2.15;1.52;;;;;;;;;;5029301;28;20021;-72
2021/12/06 12:58:25;;;;;;;3.83;1.88;;;;;;;;;;5012669;28;20052;-72
2021/12/06 13:00:58;;;;;;;1.75;1.30;;;;;;;;;;5007923;28;20017;-71
2021/12/06 13:03:31;;;;;;;2.50;1.70;;;;;;;;;;5007849;28;20169;-72
2021/12/06 13:06:23;;;;;;;3.05;1.50;;;;;;;;;;5007933;28;20105;-72
2021/12/06 13:09:11;;;;;;;2.58;1.58;;;;;;;;;;5015189;28;20053;-71
2021/12/06 13:11:36;;;;;;;2.70;1.60;;;;;;;;;;5023580;28;20053;-72
2021/12/06 13:14:03;;;;;;;4.82;1.92;;;;;;;;;;5007642;28;20073;-70
2021/12/06 13:16:55;;;;;;;3.38;1.90;;;;;;;;;;5025580;28;20017;-70
2021/12/06 13:19:38;;;;;;;5.25;2.50;;;;;;;;;;5007506;28;20034;-71
2021/12/06 13:22:12;;;;;;;2.55;1.52;;;;;;;;;;5024460;28;20252;-71
2021/12/06 13:24:47;;;;;;;4.22;1.63;;;;;;;;;;5024106;28;20079;-72
2021/12/06 13:27:18;;;;;;;2.90;1.48;;;;;;;;;;5024543;28;20429;-71
2021/12/06 13:29:56;;;;;;;3.17;1.48;;;;;;;;;;5024979;28;20029;-70
2021/12/06 13:32:34;;;;;;;1.90;1.40;;;;;;;;;;5025401;28;20036;-70
2021/12/06 13:35:14;;;;;;;2.55;1.60;;;;;;;;;;5024858;28;20018;-69
2021/12/06 13:37:40;;;;;;;3.75;1.70;;;;;;;;;;5024223;28;20030;-72
2021/12/06 13:40:20;;;;;;;2.25;1.42;;;;;;;;;;5007350;28;20101;-73
2021/12/06 13:42:46;;;;;;;3.65;1.50;;;;;;;;;;5024833;28;20114;-71
2021/12/06 13:45:21;;;;;;;2.42;1.50;;;;;;;;;;5025030;28;20028;-71
2021/12/06 13:48:06;;;;;;;2.28;1.50;;;;;;;;;;5024067;28;20046;-72
2021/12/06 13:50:32;;;;;;;3.47;1.35;;;;;;;;;;5010148;28;20021;-72
2021/12/06 13:52:57;;;;;;;2.70;1.60;;;;;;;;;;5028267;28;20072;-71
2021/12/06 13:55:37;;;;;;;4.07;1.67;;;;;;;;;;5028229;28;20026;-71
2021/12/06 13:58:05;;;;;;;2.20;1.55;;;;;;;;;;5017431;28;20037;-71
2021/12/06 14:00:45;;;;;;;3.20;1.77;;;;;;;;;;5024741;28;20072;-71
2021/12/06 14:03:17;;;;;;;2.33;1.20;;;;;;;;;;5006414;28;20466;-71
2021/12/06 14:05:45;;;;;;;2.35;1.40;;;;;;;;;;5024576;28;20014;-70
2021/12/06 14:08:16;;;;;;;3.38;1.42;;;;;;;;;;5024071;28;20064;-71
2021/12/06 14:10:41;;;;;;;2.05;1.30;;;;;;;;;;5006127;28;20022;-72
2021/12/06 14:13:07;;;;;;;4.78;1.40;;;;;;;;;;5008905;28;20033;-70
2021/12/06 14:15:48;;;;;;;1.80;1.13;;;;;;;;;;5023839;28;20032;-73
2021/12/06 14:18:17;;;;;;;3.88;1.70;;;;;;;;;;5023533;28;20032;-71
2021/12/06 14:20:53;;;;;;;1.92;1.33;;;;;;;;;;5024412;28;20021;-71
2021/12/06 14:23:20;;;;;;;2.45;1.52;;;;;;;;;;5003090;28;20097;-71
2021/12/06 14:25:50;;;;;;;3.42;2.00;;;;;;;;;;5019878;28;20032;-71
2021/12/06 14:28:21;;;;;;;4.63;1.90;;;;;;;;;;5023990;28;20046;-71
2021/12/06 14:30:48;;;;;;;3.13;1.45;;;;;;;;;;5006340;28;20022;-70
2021/12/06 14:33:14;;;;;;;3.00;1.75;;;;;;;;;;5005996;28;20028;-71
2021/12/06 14:35:42;;;;;;;3.65;1.98;;;;;;;;;;5024041;28;20018;-70
2021/12/06 14:38:08;;;;;;;2.85;1.88;;;;;;;;;;5023828;28;20033;-70
2021/12/06 14:40:33;;;;;;;8.07;2.08;;;;;;;;;;5002263;28;20311;-72
2021/12/06 14:42:59;;;;;;;4.80;2.33;;;;;;;;;;5020168;28;20060;-70
2021/12/06 14:45:25;;;;;;;3.88;2.30;;;;;;;;;;5013706;28;20033;-71
2021/12/06 14:47:59;;;;;;;5.20;2.70;;;;;;;;;;5003892;28;20042;-70
2021/12/06 14:50:38;;;;;;;;;;;;;;;;;;5004567;28;20586;-71
2021/12/06 14:53:07;;;;;;;3.28;1.25;;;;;;;;;;5003920;28;19929;-71
2021/12/06 14:55:44;;;;;;;3.90;1.63;;;;;;;;;;5000603;28;20036;-71
2021/12/06 14:58:24;;;;;;;4.15;2.30;;;;;;;;;;5023622;28;20030;-70
2021/12/06 15:01:03;;;;;;;3.17;1.83;;;;;;;;;;5023645;28;20026;-70
2021/12/06 15:03:38;;;;;;;3.90;1.70;;;;;;;;;;5023501;28;20052;-70
2021/12/06 15:06:04;;;;;;;2.90;1.77;;;;;;;;;;5017833;28;20014;-71
2021/12/06 15:08:43;;;;;;;2.50;1.77;;;;;;;;;;5022399;28;20033;-70
2021/12/06 15:11:12;;;;;;;2.60;1.73;;;;;;;;;;5023607;28;20036;-71
2021/12/06 15:13:39;;;;;;;2.42;1.60;;;;;;;;;;5023066;28;20057;-71
2021/12/06 15:16:08;;;;;;;4.43;2.17;;;;;;;;;;5023075;28;20064;-70